createdAt,value
2023-01-29T00:01:48.164Z,82.98
2023-01-29T00:06:51.040Z,83.23
2023-01-29T00:18:52.215Z,83.36
2023-01-29T00:23:55.276Z,83.54
2023-01-29T00:29:00.387Z,83.61
2023-01-29T00:34:03.561Z,83.74
2023-01-29T00:39:10.553Z,83.74
2023-01-29T00:44:16.235Z,83.84
2023-01-29T00:49:18.846Z,83.90
2023-01-29T00:54:21.613Z,83.82
2023-01-29T00:59:24.318Z,83.65
2023-01-29T01:04:26.936Z,83.68
2023-01-29T01:09:32.462Z,83.87
2023-01-29T01:14:36.093Z,83.67
2023-01-29T01:19:38.717Z,83.92
2023-01-29T01:24:41.393Z,83.83
2023-01-29T01:29:44.028Z,83.93
2023-01-29T01:34:46.644Z,84.02
2023-01-29T01:39:51.373Z,84.01
2023-01-29T01:45:01.370Z,83.92
2023-01-29T01:50:14.541Z,84.19
2023-01-29T01:55:21.642Z,84.66
2023-01-29T02:00:26.016Z,85.03
2023-01-29T02:05:35.933Z,85.44
2023-01-29T02:10:43.684Z,85.70
2023-01-29T02:15:48.525Z,86.04
2023-01-29T02:21:11.989Z,86.55
2023-01-29T02:26:20.787Z,86.85
2023-01-29T02:31:25.050Z,87.18
2023-01-29T02:36:30.554Z,87.18
2023-01-29T02:41:37.087Z,87.58
2023-01-29T02:46:40.724Z,87.69
2023-01-29T02:51:50.667Z,88.13
2023-01-29T02:56:58.726Z,88.57
2023-01-29T03:02:08.347Z,89.03
2023-01-29T03:07:37.457Z,89.76
2023-01-29T03:12:41.549Z,90.18
2023-01-29T03:17:51.628Z,90.16
2023-01-29T03:29:53.381Z,90.69
2023-01-29T03:35:02.592Z,90.84
2023-01-29T03:40:07.182Z,90.90
2023-01-29T03:45:19.980Z,91.26
2023-01-29T03:50:32.092Z,91.46
2023-01-29T03:55:58.293Z,91.50
2023-01-29T04:01:12.776Z,91.90
2023-01-29T04:06:21.170Z,92.03
2023-01-29T04:11:27.229Z,92.10
2023-01-29T04:16:37.433Z,92.17
2023-01-29T04:21:40.890Z,92.09
2023-01-29T04:26:45.452Z,92.92
2023-01-29T04:31:50.032Z,93.16
2023-01-29T04:36:52.840Z,93.51
2023-01-29T04:42:09.381Z,93.67
2023-01-29T04:47:15.180Z,93.89
2023-01-29T04:52:25.856Z,93.67
2023-01-29T04:57:36.096Z,93.92
2023-01-29T05:02:41.589Z,94.09
2023-01-29T05:07:46.049Z,94.23
2023-01-29T05:12:55.005Z,94.13
2023-01-29T05:18:02.965Z,94.38
2023-01-29T05:23:15.829Z,94.15
2023-01-29T05:28:19.096Z,94.42
2023-01-29T05:33:28.251Z,93.98
2023-01-29T05:38:31.036Z,93.89
2023-01-29T05:43:36.053Z,94.19
2023-01-29T05:48:38.792Z,94.17
2023-01-29T05:53:41.428Z,94.45
2023-01-29T05:58:44.103Z,94.47
2023-01-29T06:03:47.531Z,94.27
2023-01-29T06:08:50.273Z,94.18
2023-01-29T06:13:52.898Z,94.25
2023-01-29T06:18:55.582Z,94.34
2023-01-29T06:23:58.312Z,94.11
2023-01-29T06:29:00.947Z,94.15
2023-01-29T06:34:04.524Z,93.96
2023-01-29T06:39:07.358Z,94.06
2023-01-29T06:44:09.956Z,94.00
2023-01-29T06:49:12.629Z,93.82
2023-01-29T06:54:15.342Z,93.96
2023-01-29T06:59:18.152Z,93.85
2023-01-29T07:04:20.838Z,93.78
2023-01-29T07:09:26.306Z,93.55
2023-01-29T07:14:28.929Z,93.45
2023-01-29T07:19:31.598Z,93.41
2023-01-29T07:24:34.288Z,93.46
2023-01-29T07:29:36.960Z,93.29
2023-01-29T07:34:39.563Z,93.67
2023-01-29T07:39:42.242Z,93.40
2023-01-29T07:44:44.826Z,93.39
2023-01-29T07:49:47.442Z,93.19
2023-01-29T07:54:50.072Z,92.67
2023-01-29T07:59:52.710Z,92.43
2023-01-29T08:04:57.601Z,91.73
2023-01-29T08:10:00.428Z,91.01
2023-01-29T08:15:03.487Z,90.33
2023-01-29T08:20:07.258Z,90.40
2023-01-29T08:25:12.703Z,89.36
2023-01-29T08:30:16.354Z,89.26
2023-01-29T08:35:19.292Z,89.22
2023-01-29T08:40:22.404Z,88.53
2023-01-29T08:45:25.046Z,88.40
2023-01-29T08:50:29.930Z,87.56
2023-01-29T08:55:32.732Z,87.84
2023-01-29T09:00:35.892Z,87.88
2023-01-29T09:05:40.183Z,87.87
2023-01-29T09:10:42.849Z,87.29
2023-01-29T09:15:45.442Z,86.22
2023-01-29T09:20:48.547Z,85.99
2023-01-29T09:25:51.176Z,85.66
2023-01-29T09:30:53.981Z,86.06
2023-01-29T09:35:56.860Z,86.43
2023-01-29T09:41:16.122Z,86.39
2023-01-29T09:46:19.773Z,86.86
2023-01-29T09:51:30.504Z,86.95
2023-01-29T09:56:33.474Z,88.05
2023-01-29T10:01:49.247Z,87.92
2023-01-29T10:06:57.663Z,87.31
2023-01-29T10:12:21.440Z,86.43
2023-01-29T10:17:29.858Z,85.85
2023-01-29T10:22:35.352Z,85.61
2023-01-29T10:27:41.537Z,84.65
2023-01-29T10:32:44.294Z,84.83
2023-01-29T10:37:47.461Z,85.29
2023-01-29T10:43:00.162Z,85.82
2023-01-29T10:48:07.670Z,86.15
2023-01-29T10:53:25.848Z,85.71
2023-01-29T10:58:33.518Z,85.78
2023-01-29T11:03:36.933Z,85.79
2023-01-29T11:08:46.181Z,86.12
2023-01-29T11:13:53.651Z,86.40
2023-01-29T11:18:59.377Z,85.96
2023-01-29T11:24:22.722Z,85.87
2023-01-29T11:29:27.528Z,86.24
2023-01-29T11:34:31.498Z,86.46
2023-01-29T11:39:44.527Z,86.58
2023-01-29T11:44:47.158Z,86.40
2023-01-29T11:49:53.132Z,86.55
2023-01-29T11:55:02.132Z,86.64
2023-01-29T12:00:18.065Z,85.94
2023-01-29T12:05:24.011Z,85.37
2023-01-29T12:10:32.928Z,85.29
2023-01-29T12:15:38.823Z,85.75
2023-01-29T12:20:51.529Z,86.15
2023-01-29T12:25:57.005Z,87.05
2023-01-29T12:31:02.493Z,87.47
2023-01-29T12:36:14.418Z,87.73
2023-01-29T12:41:22.817Z,87.07
2023-01-29T12:46:33.273Z,87.31
2023-01-29T12:51:45.632Z,87.46
2023-01-29T12:56:51.964Z,87.34
2023-01-29T13:01:58.196Z,87.80
2023-01-29T13:07:12.998Z,88.16
2023-01-29T13:12:18.523Z,88.73
2023-01-29T13:17:24.086Z,88.89
2023-01-29T13:22:31.902Z,89.28
2023-01-29T13:27:36.518Z,89.47
2023-01-29T13:32:39.209Z,89.88
2023-01-29T13:37:55.012Z,89.88
2023-01-29T13:43:00.199Z,90.22
2023-01-29T13:48:09.112Z,90.62
2023-01-29T13:53:24.339Z,90.85
2023-01-29T13:58:31.801Z,91.16
2023-01-29T14:04:03.201Z,91.76
2023-01-29T14:09:29.371Z,92.07
2023-01-29T14:14:37.793Z,92.53
2023-01-29T14:19:48.719Z,92.91
2023-01-29T14:24:56.190Z,93.28
2023-01-29T14:30:06.860Z,93.13
2023-01-29T14:35:18.019Z,93.42
2023-01-29T14:40:24.505Z,93.68
2023-01-29T14:45:30.089Z,93.84
2023-01-29T14:50:32.856Z,94.05
2023-01-29T14:55:38.072Z,94.67
2023-01-29T15:00:47.183Z,94.98
2023-01-29T15:05:51.649Z,95.18
2023-01-29T15:11:00.363Z,95.65
2023-01-29T15:16:13.281Z,95.78
2023-01-29T15:21:18.311Z,96.05
2023-01-29T15:26:26.993Z,96.41
2023-01-29T15:31:30.031Z,96.50
2023-01-29T15:36:33.218Z,96.57
2023-01-29T15:41:36.221Z,96.82
2023-01-29T15:46:42.108Z,96.69
2023-01-29T15:51:46.454Z,96.70
2023-01-29T15:56:52.547Z,96.40
2023-01-29T16:01:56.284Z,96.68
2023-01-29T16:07:00.871Z,96.79
2023-01-29T16:12:04.247Z,96.90
2023-01-29T16:17:29.990Z,97.17
2023-01-29T16:22:35.685Z,96.86
2023-01-29T16:27:38.644Z,97.18
2023-01-29T16:32:41.510Z,96.85
2023-01-29T16:37:50.717Z,96.88
2023-01-29T16:43:15.504Z,96.74
2023-01-29T16:48:24.147Z,97.05
2023-01-29T16:53:27.408Z,97.20
2023-01-29T16:58:30.341Z,97.26
2023-01-29T17:03:35.325Z,97.28
2023-01-29T17:08:41.569Z,97.35
2023-01-29T17:13:45.206Z,97.29
2023-01-29T17:18:47.853Z,97.35
2023-01-29T17:23:54.355Z,97.72
2023-01-29T17:28:57.059Z,97.77
2023-01-29T17:33:59.695Z,97.93
2023-01-29T17:39:02.357Z,97.78
2023-01-29T17:44:05.046Z,98.13
2023-01-29T17:49:32.488Z,98.02
2023-01-29T17:54:35.297Z,98.22
2023-01-29T18:00:52.032Z,98.52
2023-01-29T18:05:54.675Z,98.68
2023-01-29T18:10:57.357Z,98.88
2023-01-29T18:16:00.090Z,99.09
2023-01-29T18:21:02.811Z,99.37
2023-01-29T18:26:06.743Z,99.60
2023-01-29T18:31:10.148Z,99.94
2023-01-29T18:36:13.617Z,100.00
2023-01-29T18:41:16.262Z,100.00
2023-01-29T18:46:19.452Z,100.00
2023-01-29T18:51:22.063Z,100.00
2023-01-29T18:57:04.269Z,100.00
2023-01-29T19:02:17.770Z,100.00
2023-01-29T19:07:20.569Z,100.00
2023-01-29T19:12:23.745Z,100.00
2023-01-29T19:17:27.154Z,100.00
2023-01-29T19:22:30.184Z,100.00
2023-01-29T19:27:32.902Z,100.00
2023-01-29T19:32:35.735Z,100.00
2023-01-29T19:37:38.398Z,100.00
2023-01-29T19:42:41.946Z,100.00
2023-01-29T19:47:44.598Z,100.00
2023-01-29T19:52:51.886Z,100.00
2023-01-29T19:57:56.968Z,100.00
2023-01-29T20:02:59.604Z,100.00
2023-01-29T20:08:02.219Z,100.00
2023-01-29T20:13:05.956Z,100.00
2023-01-29T20:18:11.748Z,100.00
2023-01-29T20:23:22.336Z,100.00
2023-01-29T20:28:30.774Z,100.00
2023-01-29T20:33:34.917Z,100.00
2023-01-29T20:38:37.914Z,100.00
2023-01-29T20:43:41.176Z,100.00
2023-01-29T20:48:43.860Z,100.00
2023-01-29T20:53:47.993Z,100.00
2023-01-29T20:58:50.758Z,100.00
2023-01-29T21:03:53.373Z,100.00
2023-01-29T21:08:56.241Z,100.00
2023-01-29T21:13:59.078Z,100.00
2023-01-29T21:19:01.772Z,100.00
2023-01-29T21:24:04.673Z,100.00
2023-01-29T21:29:07.314Z,100.00
2023-01-29T21:34:10.247Z,100.00
2023-01-29T21:39:15.869Z,100.00
2023-01-29T21:44:18.572Z,100.00
2023-01-29T21:49:21.227Z,100.00
2023-01-29T21:54:23.839Z,100.00
2023-01-29T21:59:26.635Z,100.00
2023-01-29T22:04:29.239Z,100.00
2023-01-29T22:09:31.835Z,100.00
2023-01-29T22:14:34.620Z,100.00
2023-01-29T22:19:37.267Z,100.00
2023-01-29T22:24:40.186Z,100.00
2023-01-29T22:29:43.063Z,100.00
2023-01-29T22:34:48.210Z,100.00
2023-01-29T22:39:50.826Z,100.00
2023-01-29T22:44:53.479Z,100.00
2023-01-29T22:49:58.184Z,100.00
2023-01-29T22:55:05.024Z,99.82
2023-01-29T23:00:11.211Z,99.92
2023-01-29T23:05:13.921Z,99.84
2023-01-29T23:10:17.390Z,100.00
2023-01-29T23:15:20.149Z,99.67
2023-01-29T23:20:22.802Z,99.67
2023-01-29T23:25:45.408Z,99.41
2023-01-29T23:30:49.511Z,99.58
2023-01-29T23:35:52.310Z,99.48
2023-01-29T23:40:57.902Z,99.34
2023-01-29T23:46:01.664Z,99.30
2023-01-29T23:51:04.398Z,99.40
2023-01-29T23:56:07.387Z,99.11
